createdAt,value
2018-07-06T00:00:42.633Z,0
2018-07-06T00:01:42.881Z,0
2018-07-06T00:02:43.182Z,0
2018-07-06T00:03:42.680Z,0
2018-07-06T00:04:42.820Z,0
2018-07-06T00:05:42.624Z,0
2018-07-06T00:06:42.622Z,0
2018-07-06T00:07:42.683Z,0
2018-07-06T00:08:42.676Z,0
2018-07-06T00:09:43.158Z,0
2018-07-06T00:10:42.632Z,0
2018-07-06T00:11:42.926Z,0
2018-07-06T00:12:43.103Z,0
2018-07-06T00:13:42.913Z,0
2018-07-06T00:14:43.943Z,0
2018-07-06T00:15:43.243Z,0
2018-07-06T00:16:43.332Z,0
2018-07-06T00:17:42.995Z,0
2018-07-06T00:18:42.836Z,0
2018-07-06T00:19:42.963Z,0
2018-07-06T00:20:43.549Z,0
2018-07-06T00:21:43.036Z,0
2018-07-06T00:22:43.130Z,0
2018-07-06T00:23:43.235Z,0
2018-07-06T00:24:43.070Z,0
2018-07-06T00:25:43.409Z,0
2018-07-06T00:26:43.124Z,0
2018-07-06T00:27:43.376Z,0
2018-07-06T00:28:43.181Z,0
2018-07-06T00:29:43.192Z,0
2018-07-06T00:30:49.757Z,0
2018-07-06T00:31:42.974Z,0
2018-07-06T00:32:43.535Z,0
2018-07-06T00:33:43.570Z,0
2018-07-06T00:34:43.585Z,0
2018-07-06T00:35:43.618Z,0
2018-07-06T00:36:43.789Z,0
2018-07-06T00:37:43.402Z,0
2018-07-06T00:38:43.426Z,0
2018-07-06T00:39:43.455Z,0
2018-07-06T00:40:43.479Z,0
2018-07-06T00:41:43.510Z,0
2018-07-06T00:42:43.847Z,0
2018-07-06T00:43:43.828Z,0
2018-07-06T00:44:43.862Z,0
2018-07-06T00:45:43.344Z,0
2018-07-06T00:46:43.901Z,0
2018-07-06T00:47:43.932Z,0
2018-07-06T00:48:43.161Z,0
2018-07-06T00:49:43.981Z,0
2018-07-06T00:50:44.013Z,0
2018-07-06T00:51:44.032Z,0
2018-07-06T00:52:44.107Z,0
2018-07-06T00:53:44.089Z,0
2018-07-06T00:54:43.929Z,0
2018-07-06T00:55:44.150Z,0
2018-07-06T00:56:43.947Z,0
2018-07-06T00:57:43.663Z,0
2018-07-06T00:58:43.957Z,0
2018-07-06T00:59:44.249Z,0
2018-07-06T01:00:44.272Z,0
2018-07-06T01:01:44.321Z,0
2018-07-06T01:02:43.790Z,0
2018-07-06T01:03:44.361Z,0
2018-07-06T01:04:44.388Z,0
2018-07-06T01:05:44.135Z,0
2018-07-06T01:06:44.430Z,0
2018-07-06T01:07:44.454Z,0
2018-07-06T01:08:44.483Z,0
2018-07-06T01:09:43.972Z,0
2018-07-06T01:10:44.540Z,0
2018-07-06T01:11:44.559Z,0
2018-07-06T01:12:44.586Z,0
2018-07-06T01:13:44.620Z,0
2018-07-06T01:14:44.639Z,0
2018-07-06T01:15:44.398Z,0
2018-07-06T01:16:44.687Z,0
2018-07-06T01:17:44.182Z,0
2018-07-06T01:18:44.734Z,0
2018-07-06T01:19:44.775Z,0
2018-07-06T01:20:44.795Z,0
2018-07-06T01:21:44.830Z,0
2018-07-06T01:22:44.314Z,0
2018-07-06T01:23:44.601Z,0
2018-07-06T01:24:44.634Z,0
2018-07-06T01:25:44.943Z,0
2018-07-06T01:26:44.946Z,0
2018-07-06T01:27:44.981Z,0
2018-07-06T01:28:45.006Z,0
2018-07-06T01:29:45.074Z,0
2018-07-06T01:30:45.053Z,0
2018-07-06T01:31:45.078Z,0
2018-07-06T01:32:45.110Z,0
2018-07-06T01:33:45.137Z,0
2018-07-06T01:34:45.154Z,0
2018-07-06T01:35:45.189Z,0
2018-07-06T01:36:45.199Z,0
2018-07-06T01:37:45.239Z,0
2018-07-06T01:38:45.253Z,0
2018-07-06T01:39:45.030Z,0
2018-07-06T01:40:45.044Z,0
2018-07-06T01:41:45.331Z,0
2018-07-06T01:42:45.359Z,0
2018-07-06T01:43:45.442Z,0
2018-07-06T01:44:45.412Z,0
2018-07-06T01:45:45.437Z,0
2018-07-06T01:46:45.478Z,0
2018-07-06T01:47:45.499Z,0
2018-07-06T01:48:45.260Z,0
2018-07-06T01:49:45.545Z,0
2018-07-06T01:50:45.305Z,0
2018-07-06T01:51:45.592Z,0
2018-07-06T01:52:45.353Z,0
2018-07-06T01:53:45.644Z,0
2018-07-06T01:54:45.669Z,0
2018-07-06T01:55:45.430Z,0
2018-07-06T01:56:45.719Z,0
2018-07-06T01:57:45.482Z,0
2018-07-06T01:58:45.764Z,0
2018-07-06T01:59:45.526Z,0
2018-07-06T02:00:45.821Z,0
2018-07-06T02:01:45.577Z,0
2018-07-06T02:02:45.868Z,0
2018-07-06T02:03:45.898Z,0
2018-07-06T02:04:45.656Z,0
2018-07-06T02:05:45.947Z,0
2018-07-06T02:06:45.967Z,0
2018-07-06T02:07:45.996Z,0
2018-07-06T02:08:46.068Z,0
2018-07-06T02:09:46.084Z,0
2018-07-06T02:10:45.543Z,0
2018-07-06T02:11:46.100Z,0
2018-07-06T02:12:46.131Z,0
2018-07-06T02:13:46.159Z,0
2018-07-06T02:14:45.911Z,0
2018-07-06T02:15:45.937Z,0
2018-07-06T02:16:46.221Z,0
2018-07-06T02:17:45.983Z,0
2018-07-06T02:18:46.008Z,0
2018-07-06T02:19:46.357Z,0
2018-07-06T02:20:46.334Z,0
2018-07-06T02:21:45.820Z,0
2018-07-06T02:22:46.376Z,0
2018-07-06T02:23:46.140Z,0
2018-07-06T02:24:46.431Z,0
2018-07-06T02:25:46.194Z,0
2018-07-06T02:26:46.485Z,0
2018-07-06T02:27:46.506Z,0
2018-07-06T02:28:46.531Z,0
2018-07-06T02:29:46.291Z,0
2018-07-06T02:30:46.082Z,0
2018-07-06T02:31:46.361Z,0
2018-07-06T02:32:46.098Z,0
2018-07-06T02:33:46.659Z,0
2018-07-06T02:34:46.690Z,4
2018-07-06T02:35:46.707Z,4
2018-07-06T02:36:46.479Z,4
2018-07-06T02:37:46.487Z,0
2018-07-06T02:38:46.523Z,0
2018-07-06T02:39:46.539Z,4
2018-07-06T02:40:46.838Z,4
2018-07-06T02:41:46.586Z,4
2018-07-06T02:42:46.885Z,0
2018-07-06T02:43:46.913Z,4
2018-07-06T02:44:46.942Z,4
2018-07-06T02:45:46.961Z,8
2018-07-06T02:46:47.009Z,4
2018-07-06T02:47:47.009Z,8
2018-07-06T02:48:47.037Z,4
2018-07-06T02:49:47.064Z,8
2018-07-06T02:50:47.107Z,8
2018-07-06T02:51:47.112Z,12
2018-07-06T02:52:47.189Z,12
2018-07-06T02:53:47.163Z,12
2018-07-06T02:54:47.181Z,12
2018-07-06T02:55:47.220Z,16
2018-07-06T02:56:47.236Z,16
2018-07-06T02:57:47.262Z,16
2018-07-06T02:58:47.295Z,16
2018-07-06T02:59:47.332Z,16
2018-07-06T03:00:47.338Z,20
2018-07-06T03:01:47.370Z,20
2018-07-06T03:02:47.382Z,24
2018-07-06T03:03:46.872Z,28
2018-07-06T03:04:47.434Z,28
2018-07-06T03:05:47.461Z,32
2018-07-06T03:06:47.217Z,32
2018-07-06T03:07:47.522Z,32
2018-07-06T03:08:47.277Z,36
2018-07-06T03:09:47.293Z,40
2018-07-06T03:10:47.054Z,40
2018-07-06T03:11:47.347Z,48
2018-07-06T03:12:47.105Z,48
2018-07-06T03:13:47.660Z,56
2018-07-06T03:14:47.422Z,56
2018-07-06T03:15:47.446Z,56
2018-07-06T03:16:47.464Z,64
2018-07-06T03:17:47.767Z,68
2018-07-06T03:18:47.572Z,72
2018-07-06T03:19:47.799Z,80
2018-07-06T03:20:47.831Z,80
2018-07-06T03:21:47.860Z,84
2018-07-06T03:22:47.892Z,88
2018-07-06T03:23:47.652Z,96
2018-07-06T03:24:47.658Z,100
2018-07-06T03:25:47.423Z,104
2018-07-06T03:26:48.000Z,108
2018-07-06T03:27:48.144Z,112
2018-07-06T03:28:49.624Z,116
2018-07-06T03:29:48.048Z,120
2018-07-06T03:30:47.816Z,128
2018-07-06T03:31:47.835Z,132
2018-07-06T03:32:47.857Z,136
2018-07-06T03:33:48.153Z,140
2018-07-06T03:34:48.226Z,144
2018-07-06T03:35:48.203Z,148
2018-07-06T03:36:47.956Z,152
2018-07-06T03:37:47.984Z,152
2018-07-06T03:38:48.001Z,156
2018-07-06T03:39:48.291Z,156
2018-07-06T03:40:48.358Z,156
2018-07-06T03:41:48.358Z,156
2018-07-06T03:42:48.099Z,152
2018-07-06T03:43:48.397Z,156
2018-07-06T03:44:48.153Z,148
2018-07-06T03:45:48.468Z,156
2018-07-06T03:46:48.205Z,144
2018-07-06T03:47:48.220Z,144
2018-07-06T03:48:48.514Z,148
2018-07-06T03:49:48.540Z,148
2018-07-06T03:50:48.564Z,148
2018-07-06T03:51:48.329Z,152
2018-07-06T03:52:48.616Z,148
2018-07-06T03:53:48.639Z,140
2018-07-06T03:54:48.681Z,156
2018-07-06T03:55:48.692Z,152
2018-07-06T03:56:48.177Z,168
2018-07-06T03:57:48.733Z,176
2018-07-06T03:58:48.493Z,184
2018-07-06T03:59:48.786Z,180
2018-07-06T04:00:48.540Z,184
2018-07-06T04:01:48.836Z,192
2018-07-06T04:02:48.590Z,184
2018-07-06T04:03:48.610Z,184
2018-07-06T04:04:48.922Z,184
2018-07-06T04:05:48.933Z,188
2018-07-06T04:06:48.954Z,200
2018-07-06T04:07:48.982Z,204
2018-07-06T04:08:48.737Z,216
2018-07-06T04:09:48.764Z,224
2018-07-06T04:10:49.058Z,264
2018-07-06T04:11:49.079Z,236
2018-07-06T04:12:49.097Z,244
2018-07-06T04:13:49.127Z,256
2018-07-06T04:14:48.882Z,268
2018-07-06T04:15:49.169Z,276
2018-07-06T04:16:49.227Z,300
2018-07-06T04:17:48.957Z,320
2018-07-06T04:18:49.249Z,280
2018-07-06T04:19:49.267Z,288
2018-07-06T04:20:49.023Z,292
2018-07-06T04:21:49.326Z,284
2018-07-06T04:22:49.347Z,320
2018-07-06T04:23:49.399Z,320
2018-07-06T04:24:49.130Z,336
2018-07-06T04:25:49.416Z,356
2018-07-06T04:26:49.190Z,364
2018-07-06T04:27:48.938Z,352
2018-07-06T04:28:49.491Z,368
2018-07-06T04:29:49.512Z,364
2018-07-06T04:30:49.273Z,356
2018-07-06T04:31:49.295Z,368
2018-07-06T04:32:49.319Z,384
2018-07-06T04:33:49.609Z,348
2018-07-06T04:34:49.366Z,368
2018-07-06T04:35:49.659Z,352
2018-07-06T04:36:49.417Z,392
2018-07-06T04:37:49.440Z,380
2018-07-06T04:38:49.736Z,368
2018-07-06T04:39:49.756Z,352
2018-07-06T04:40:49.780Z,368
2018-07-06T04:41:49.811Z,420
2018-07-06T04:42:49.840Z,456
2018-07-06T04:43:49.860Z,416
2018-07-06T04:44:49.873Z,416
2018-07-06T04:45:49.906Z,408
2018-07-06T04:46:49.664Z,412
2018-07-06T04:47:49.950Z,428
2018-07-06T04:48:49.972Z,424
2018-07-06T04:49:49.734Z,440
2018-07-06T04:50:49.752Z,464
2018-07-06T04:51:50.043Z,448
2018-07-06T04:52:49.541Z,456
2018-07-06T04:53:50.098Z,440
2018-07-06T04:54:49.318Z,428
2018-07-06T04:55:50.152Z,340
2018-07-06T04:56:50.168Z,316
2018-07-06T04:57:50.278Z,312
2018-07-06T04:58:50.218Z,344
2018-07-06T04:59:50.053Z,412
2018-07-06T05:00:50.271Z,536
2018-07-06T05:01:50.285Z,632
2018-07-06T05:02:50.050Z,640
2018-07-06T05:03:50.343Z,660
2018-07-06T05:04:49.827Z,572
2018-07-06T05:05:50.222Z,488
2018-07-06T05:06:49.877Z,460
2018-07-06T05:07:50.292Z,572
2018-07-06T05:08:49.924Z,576
2018-07-06T05:09:50.484Z,576
2018-07-06T05:10:50.511Z,600
2018-07-06T05:11:49.997Z,544
2018-07-06T05:12:50.562Z,660
2018-07-06T05:13:50.588Z,652
2018-07-06T05:14:50.607Z,580
2018-07-06T05:15:50.369Z,660
2018-07-06T05:16:51.163Z,644
2018-07-06T05:17:50.680Z,680
2018-07-06T05:18:50.168Z,596
2018-07-06T05:19:50.728Z,588
2018-07-06T05:20:50.750Z,600
2018-07-06T05:21:50.514Z,604
2018-07-06T05:22:50.269Z,596
2018-07-06T05:23:50.821Z,588
2018-07-06T05:24:50.850Z,604
2018-07-06T05:25:50.338Z,580
2018-07-06T05:26:50.628Z,480
2018-07-06T05:27:50.656Z,520
2018-07-06T05:28:50.686Z,540
2018-07-06T05:29:50.970Z,620
2018-07-06T05:30:50.994Z,616
2018-07-06T05:31:50.762Z,616
2018-07-06T05:32:50.509Z,692
2018-07-06T05:33:51.064Z,772
2018-07-06T05:34:50.818Z,900
2018-07-06T05:35:50.579Z,752
2018-07-06T05:36:50.602Z,708
2018-07-06T05:37:51.422Z,620
2018-07-06T05:38:50.911Z,560
2018-07-06T05:39:50.685Z,640
2018-07-06T05:40:50.986Z,784
2018-07-06T05:41:50.991Z,712
2018-07-06T05:42:51.011Z,648
2018-07-06T05:43:51.037Z,672
2018-07-06T05:44:51.333Z,644
2018-07-06T05:45:51.085Z,768
2018-07-06T05:46:51.375Z,844
2018-07-06T05:47:51.222Z,828
2018-07-06T05:48:51.163Z,792
2018-07-06T05:49:51.448Z,792
2018-07-06T05:50:51.471Z,812
2018-07-06T05:51:51.497Z,780
2018-07-06T05:52:51.532Z,760
2018-07-06T05:53:51.446Z,664
2018-07-06T05:54:51.576Z,768
2018-07-06T05:55:51.600Z,944
2018-07-06T05:56:51.618Z,1024
2018-07-06T05:57:51.640Z,1164
2018-07-06T05:58:51.666Z,1252
2018-07-06T05:59:51.424Z,1112
2018-07-06T06:00:51.718Z,988
2018-07-06T06:01:51.482Z,1008
2018-07-06T06:02:51.768Z,1016
2018-07-06T06:03:51.253Z,816
2018-07-06T06:04:51.590Z,712
2018-07-06T06:05:51.844Z,780
2018-07-06T06:06:51.884Z,784
2018-07-06T06:07:51.619Z,836
2018-07-06T06:08:51.639Z,900
2018-07-06T06:09:51.665Z,980
2018-07-06T06:10:51.777Z,1092
2018-07-06T06:11:51.717Z,1160
2018-07-06T06:12:52.013Z,1244
2018-07-06T06:13:51.768Z,1272
2018-07-06T06:14:52.002Z,1312
2018-07-06T06:15:51.818Z,1504
2018-07-06T06:16:52.111Z,1500
2018-07-06T06:17:52.126Z,1452
2018-07-06T06:18:52.771Z,1504
2018-07-06T06:19:51.913Z,1632
2018-07-06T06:20:52.204Z,1676
2018-07-06T06:21:52.229Z,1620
2018-07-06T06:22:52.252Z,1620
2018-07-06T06:23:52.273Z,1700
2018-07-06T06:24:52.166Z,1660
2018-07-06T06:25:51.525Z,1608
2018-07-06T06:26:52.354Z,1620
2018-07-06T06:27:52.375Z,1568
2018-07-06T06:28:51.858Z,1584
2018-07-06T06:29:52.480Z,1644
2018-07-06T06:30:52.450Z,1700
2018-07-06T06:31:52.464Z,1668
2018-07-06T06:32:52.313Z,1708
2018-07-06T06:33:52.836Z,1636
2018-07-06T06:34:52.281Z,1584
2018-07-06T06:35:52.569Z,1504
2018-07-06T06:36:52.493Z,1512
2018-07-06T06:37:52.537Z,1556
2018-07-06T06:38:52.643Z,1400
2018-07-06T06:39:52.403Z,1416
2018-07-06T06:40:52.429Z,1480
2018-07-06T06:41:52.518Z,1420
2018-07-06T06:42:51.940Z,1420
2018-07-06T06:43:52.249Z,1396
2018-07-06T06:44:53.161Z,1392
2018-07-06T06:45:52.812Z,1680
2018-07-06T06:46:52.996Z,1856
2018-07-06T06:47:52.601Z,1844
2018-07-06T06:48:52.893Z,1656
2018-07-06T06:49:52.909Z,1644
2018-07-06T06:50:53.015Z,1500
2018-07-06T06:51:52.957Z,1576
2018-07-06T06:52:52.725Z,1712
2018-07-06T06:53:52.481Z,1900
2018-07-06T06:54:52.767Z,1784
2018-07-06T06:55:52.793Z,1812
2018-07-06T06:56:53.088Z,1980
2018-07-06T06:57:52.897Z,1920
2018-07-06T06:58:53.133Z,1900
2018-07-06T06:59:52.926Z,1924
2018-07-06T07:00:52.924Z,1980
2018-07-06T07:01:52.943Z,1976
2018-07-06T07:02:52.976Z,1864
2018-07-06T07:03:53.257Z,1776
2018-07-06T07:04:53.893Z,2104
2018-07-06T07:05:53.308Z,1960
2018-07-06T07:06:53.062Z,1796
2018-07-06T07:07:53.540Z,1836
2018-07-06T07:08:53.435Z,1700
2018-07-06T07:09:53.410Z,1500
2018-07-06T07:10:52.894Z,1420
2018-07-06T07:11:52.921Z,1324
2018-07-06T07:12:53.226Z,1280
2018-07-06T07:13:53.669Z,1484
2018-07-06T07:14:53.522Z,1508
2018-07-06T07:15:53.551Z,1468
2018-07-06T07:16:53.581Z,1408
2018-07-06T07:17:53.338Z,1632
2018-07-06T07:18:53.098Z,1592
2018-07-06T07:19:53.662Z,1660
2018-07-06T07:20:53.150Z,1632
2018-07-06T07:21:53.445Z,1552
2018-07-06T07:22:53.725Z,1596
2018-07-06T07:23:53.878Z,1960
2018-07-06T07:24:53.514Z,1912
2018-07-06T07:25:53.800Z,2208
2018-07-06T07:26:53.560Z,1944
2018-07-06T07:27:53.846Z,1836
2018-07-06T07:28:53.618Z,1800
2018-07-06T07:29:53.907Z,1992
2018-07-06T07:30:53.986Z,1996
2018-07-06T07:31:53.699Z,2260
2018-07-06T07:32:53.711Z,2296
2018-07-06T07:33:53.756Z,2120
2018-07-06T07:34:53.755Z,2200
2018-07-06T07:35:53.786Z,1992
2018-07-06T07:36:53.807Z,2232
2018-07-06T07:37:54.101Z,2132
2018-07-06T07:38:54.223Z,2028
2018-07-06T07:39:53.893Z,2248
2018-07-06T07:40:53.914Z,2424
2018-07-06T07:41:54.195Z,2196
2018-07-06T07:42:54.220Z,1864
2018-07-06T07:43:54.254Z,2196
2018-07-06T07:44:54.269Z,2228
2018-07-06T07:45:54.043Z,2248
2018-07-06T07:46:54.076Z,2136
2018-07-06T07:47:54.114Z,2372
2018-07-06T07:48:54.415Z,2592
2018-07-06T07:49:53.870Z,2504
2018-07-06T07:50:53.903Z,2464
2018-07-06T07:51:54.191Z,2136
2018-07-06T07:52:54.213Z,2092
2018-07-06T07:53:54.389Z,2084
2018-07-06T07:54:54.259Z,2244
2018-07-06T07:55:54.590Z,2280
2018-07-06T07:56:54.322Z,2544
2018-07-06T07:57:54.340Z,2124
2018-07-06T07:58:54.103Z,2180
2018-07-06T07:59:54.389Z,2300
2018-07-06T08:00:55.470Z,2080
2018-07-06T08:01:54.705Z,2304
2018-07-06T08:02:54.743Z,2044
2018-07-06T08:03:54.494Z,2096
2018-07-06T08:04:54.781Z,2084
2018-07-06T08:05:54.841Z,1740
2018-07-06T08:06:54.568Z,1956
2018-07-06T08:07:54.602Z,2200
2018-07-06T08:08:54.614Z,2320
2018-07-06T08:09:54.904Z,2284
2018-07-06T08:10:54.967Z,2364
2018-07-06T08:11:55.336Z,2520
2018-07-06T08:12:54.982Z,2276
2018-07-06T08:13:55.026Z,2400
2018-07-06T08:14:55.033Z,2640
2018-07-06T08:15:54.791Z,2528
2018-07-06T08:16:54.909Z,2156
2018-07-06T08:17:54.842Z,2208
2018-07-06T08:18:54.605Z,2340
2018-07-06T08:19:54.905Z,2116
2018-07-06T08:20:55.190Z,2476
2018-07-06T08:21:54.948Z,2572
2018-07-06T08:22:55.239Z,2136
2018-07-06T08:23:55.266Z,1940
2018-07-06T08:24:55.294Z,2000
2018-07-06T08:25:55.047Z,2344
2018-07-06T08:26:54.805Z,2544
2018-07-06T08:27:55.375Z,2472
2018-07-06T08:28:55.390Z,1976
2018-07-06T08:29:55.426Z,1940
2018-07-06T08:30:55.185Z,2240
2018-07-06T08:31:55.484Z,2680
2018-07-06T08:32:55.493Z,2848
2018-07-06T08:33:55.515Z,2756
2018-07-06T08:34:55.020Z,2504
2018-07-06T08:35:55.309Z,2712
2018-07-06T08:36:55.328Z,2824
2018-07-06T08:37:55.359Z,2804
2018-07-06T08:38:55.655Z,2684
2018-07-06T08:39:55.897Z,2540
2018-07-06T08:40:55.701Z,2440
2018-07-06T08:41:55.459Z,2128
2018-07-06T08:42:55.499Z,1920
2018-07-06T08:43:55.246Z,2092
2018-07-06T08:44:55.784Z,2396
2018-07-06T08:45:55.301Z,2392
2018-07-06T08:46:55.585Z,2112
2018-07-06T08:47:55.878Z,2144
2018-07-06T08:48:55.637Z,2132
2018-07-06T08:49:55.400Z,1928
2018-07-06T08:50:55.979Z,1744
2018-07-06T08:51:55.720Z,1876
2018-07-06T08:52:55.494Z,2024
2018-07-06T08:53:55.773Z,2060
2018-07-06T08:54:55.533Z,2176
2018-07-06T08:55:55.827Z,2324
2018-07-06T08:56:55.845Z,2388
2018-07-06T08:57:56.163Z,2544
2018-07-06T08:58:56.160Z,2600
2018-07-06T08:59:56.188Z,2860
2018-07-06T09:00:56.226Z,2564
2018-07-06T09:01:55.976Z,2216
2018-07-06T09:02:55.740Z,2356
2018-07-06T09:03:55.760Z,2516
2018-07-06T09:04:56.056Z,2372
2018-07-06T09:05:55.810Z,2392
2018-07-06T09:06:55.836Z,2500
2018-07-06T09:07:56.408Z,2524
2018-07-06T09:08:56.154Z,2276
2018-07-06T09:09:56.454Z,2084
2018-07-06T09:10:56.215Z,2068
2018-07-06T09:11:56.496Z,2016
2018-07-06T09:12:56.301Z,1916
2018-07-06T09:13:56.018Z,1832
2018-07-06T09:14:56.323Z,1772
2018-07-06T09:15:56.339Z,1708
2018-07-06T09:16:56.346Z,1732
2018-07-06T09:17:56.595Z,1972
2018-07-06T09:18:56.242Z,2140
2018-07-06T09:19:58.298Z,2084
2018-07-06T09:20:56.738Z,1840
2018-07-06T09:21:56.763Z,1760
2018-07-06T09:22:56.523Z,1784
2018-07-06T09:23:56.829Z,1792
2018-07-06T09:24:56.569Z,1752
2018-07-06T09:25:58.334Z,1728
2018-07-06T09:26:56.366Z,1728
2018-07-06T09:27:56.391Z,1788
2018-07-06T09:28:56.676Z,1752
2018-07-06T09:29:56.974Z,1760
2018-07-06T09:30:56.727Z,1956
2018-07-06T09:31:57.021Z,2244
2018-07-06T09:32:57.060Z,2532
2018-07-06T09:33:56.828Z,2804
2018-07-06T09:34:56.842Z,2892
2018-07-06T09:35:57.358Z,2276
2018-07-06T09:36:56.886Z,2220
2018-07-06T09:37:57.178Z,2140
2018-07-06T09:38:57.224Z,2100
2018-07-06T09:39:57.230Z,2208
2018-07-06T09:40:57.264Z,2260
2018-07-06T09:41:57.285Z,2264
2018-07-06T09:42:57.330Z,2204
2018-07-06T09:43:56.808Z,2224
2018-07-06T09:44:57.098Z,2156
2018-07-06T09:45:57.121Z,2236
2018-07-06T09:46:57.158Z,2216
2018-07-06T09:47:57.176Z,2704
2018-07-06T09:48:57.446Z,2512
2018-07-06T09:49:56.967Z,2528
2018-07-06T09:50:57.781Z,2200
2018-07-06T09:51:57.543Z,1896
2018-07-06T09:52:57.581Z,1756
2018-07-06T09:53:57.326Z,1996
2018-07-06T09:54:57.371Z,2152
2018-07-06T09:55:57.660Z,2156
2018-07-06T09:56:57.414Z,2280
2018-07-06T09:57:57.350Z,2768
2018-07-06T09:58:57.510Z,2844
2018-07-06T09:59:57.762Z,2708
2018-07-06T10:00:57.524Z,2868
2018-07-06T10:01:57.542Z,2848
2018-07-06T10:02:57.836Z,2856
2018-07-06T10:03:57.605Z,2836
2018-07-06T10:04:57.628Z,2896
2018-07-06T10:05:57.654Z,3068
2018-07-06T10:06:57.672Z,2928
2018-07-06T10:07:57.439Z,2708
2018-07-06T10:08:58.061Z,2504
2018-07-06T10:09:58.391Z,2428
2018-07-06T10:10:58.235Z,2604
2018-07-06T10:11:58.074Z,2744
2018-07-06T10:12:58.107Z,2508
2018-07-06T10:13:57.592Z,2532
2018-07-06T10:14:58.157Z,2836
2018-07-06T10:15:58.078Z,2732
2018-07-06T10:16:57.943Z,2876
2018-07-06T10:17:57.726Z,2820
2018-07-06T10:18:58.262Z,2684
2018-07-06T10:19:58.581Z,2584
2018-07-06T10:20:58.320Z,2728
2018-07-06T10:21:58.601Z,2820
2018-07-06T10:22:58.372Z,2836
2018-07-06T10:23:57.904Z,2708
2018-07-06T10:24:57.913Z,2612
2018-07-06T10:25:58.183Z,2464
2018-07-06T10:26:58.387Z,1992
2018-07-06T10:27:58.230Z,1812
2018-07-06T10:28:58.527Z,2172
2018-07-06T10:29:58.285Z,2484
2018-07-06T10:30:58.592Z,2528
2018-07-06T10:31:58.606Z,2640
2018-07-06T10:32:58.117Z,2928
2018-07-06T10:33:58.781Z,2716
2018-07-06T10:34:58.425Z,2524
2018-07-06T10:35:58.459Z,2316
2018-07-06T10:36:58.738Z,2460
2018-07-06T10:37:58.501Z,2544
2018-07-06T10:38:58.797Z,2580
2018-07-06T10:39:59.830Z,2636
2018-07-06T10:40:58.589Z,2792
2018-07-06T10:41:58.335Z,3004
2018-07-06T10:42:58.630Z,2748
2018-07-06T10:43:58.666Z,2664
2018-07-06T10:44:58.693Z,2412
2018-07-06T10:45:58.711Z,2372
2018-07-06T10:46:59.018Z,2636
2018-07-06T10:47:58.770Z,2684
2018-07-06T10:48:58.531Z,2560
2018-07-06T10:49:58.554Z,2500
2018-07-06T10:50:58.843Z,2516
2018-07-06T10:51:58.606Z,2500
2018-07-06T10:52:58.637Z,2768
2018-07-06T10:53:58.395Z,3160
2018-07-06T10:54:59.222Z,3628
2018-07-06T10:55:59.243Z,3048
2018-07-06T10:56:59.275Z,3052
2018-07-06T10:57:58.497Z,3204
2018-07-06T10:58:58.794Z,3316
2018-07-06T10:59:59.090Z,4064
2018-07-06T11:00:59.235Z,4004
2018-07-06T11:01:59.138Z,4156
2018-07-06T11:02:59.435Z,4260
2018-07-06T11:03:59.455Z,3612
2018-07-06T11:04:59.686Z,2836
2018-07-06T11:05:59.247Z,2672
2018-07-06T11:06:59.543Z,2328
2018-07-06T11:07:59.541Z,2516
2018-07-06T11:08:59.451Z,2768
2018-07-06T11:09:59.083Z,3324
2018-07-06T11:10:59.650Z,3240
2018-07-06T11:11:58.895Z,3256
2018-07-06T11:12:59.436Z,2684
2018-07-06T11:13:59.731Z,3692
2018-07-06T11:14:59.750Z,3196
2018-07-06T11:15:59.251Z,3264
2018-07-06T11:16:59.816Z,3632
2018-07-06T11:17:59.839Z,4408
2018-07-06T11:18:59.378Z,2556
2018-07-06T11:19:59.895Z,2112
2018-07-06T11:20:59.915Z,4368
2018-07-06T11:21:59.941Z,4752
2018-07-06T11:22:59.705Z,6112
2018-07-06T11:23:59.731Z,4820
2018-07-06T11:24:59.784Z,5144
2018-07-06T11:26:00.052Z,3556
2018-07-06T11:26:59.818Z,4344
2018-07-06T11:28:00.107Z,3748
2018-07-06T11:29:00.137Z,3680
2018-07-06T11:29:59.894Z,5320
2018-07-06T11:30:59.659Z,5644
2018-07-06T11:32:00.233Z,5744
2018-07-06T11:33:00.244Z,5616
2018-07-06T11:34:00.000Z,4640
2018-07-06T11:35:00.310Z,3692
2018-07-06T11:36:00.327Z,5064
2018-07-06T11:37:00.370Z,4496
2018-07-06T11:38:00.818Z,5152
2018-07-06T11:39:00.412Z,4008
2018-07-06T11:40:00.186Z,4972
2018-07-06T11:41:00.196Z,5728
2018-07-06T11:42:00.494Z,4740
2018-07-06T11:43:00.551Z,4352
2018-07-06T11:44:00.284Z,3812
2018-07-06T11:45:01.164Z,3704
2018-07-06T11:46:00.612Z,3392
2018-07-06T11:47:00.702Z,3444
2018-07-06T11:48:00.708Z,3404
2018-07-06T11:49:00.423Z,4628
2018-07-06T11:50:00.449Z,5680
2018-07-06T11:51:00.207Z,6160
2018-07-06T11:52:00.513Z,4080
2018-07-06T11:53:00.812Z,3884
2018-07-06T11:54:00.571Z,4252
2018-07-06T11:55:00.857Z,4912
2018-07-06T11:56:01.095Z,4360
2018-07-06T11:57:00.377Z,4716
2018-07-06T11:58:00.417Z,4724
2018-07-06T11:59:00.431Z,5352
2018-07-06T12:00:01.005Z,5432
2018-07-06T12:01:00.776Z,4388
2018-07-06T12:02:01.265Z,4368
2018-07-06T12:03:01.077Z,4704
2018-07-06T12:04:00.997Z,4748
2018-07-06T12:05:00.870Z,3648
2018-07-06T12:06:00.637Z,4204
2018-07-06T12:07:01.198Z,5396
2018-07-06T12:08:01.255Z,5412
2018-07-06T12:09:00.988Z,4800
2018-07-06T12:10:01.033Z,5176
2018-07-06T12:11:01.328Z,5476
2018-07-06T12:12:01.351Z,5308
2018-07-06T12:13:00.834Z,4252
2018-07-06T12:14:01.471Z,4188
2018-07-06T12:15:01.422Z,3712
2018-07-06T12:16:01.458Z,4292
2018-07-06T12:17:01.229Z,4568
2018-07-06T12:18:01.521Z,3960
2018-07-06T12:19:01.316Z,3752
2018-07-06T12:20:01.311Z,3948
2018-07-06T12:21:01.799Z,4332
2018-07-06T12:22:01.380Z,4600
2018-07-06T12:23:01.463Z,4492
2018-07-06T12:24:01.419Z,5204
2018-07-06T12:25:01.458Z,4600
2018-07-06T12:26:01.493Z,4948
2018-07-06T12:27:01.245Z,5492
2018-07-06T12:28:02.003Z,4804
2018-07-06T12:29:01.975Z,4524
2018-07-06T12:30:01.638Z,4584
2018-07-06T12:31:07.483Z,3976
2018-07-06T12:32:01.928Z,3996
2018-07-06T12:33:01.950Z,4256
2018-07-06T12:34:01.714Z,3880
2018-07-06T12:35:01.747Z,3932
2018-07-06T12:36:01.776Z,4548
2018-07-06T12:37:01.916Z,4884
2018-07-06T12:38:02.099Z,4888
2018-07-06T12:39:02.130Z,3860
2018-07-06T12:40:02.159Z,4808
2018-07-06T12:41:01.939Z,3076
2018-07-06T12:42:02.211Z,5908
2018-07-06T12:43:02.251Z,4980
2018-07-06T12:44:02.271Z,4180
2018-07-06T12:45:02.321Z,5204
2018-07-06T12:46:01.797Z,2992
2018-07-06T12:47:02.103Z,4408
2018-07-06T12:48:02.691Z,3172
2018-07-06T12:49:02.161Z,2592
2018-07-06T12:50:02.462Z,2648
2018-07-06T12:51:01.963Z,4756
2018-07-06T12:52:02.561Z,5108
2018-07-06T12:53:02.551Z,3364
2018-07-06T12:54:02.324Z,6156
2018-07-06T12:55:02.596Z,5756
2018-07-06T12:56:02.634Z,5084
2018-07-06T12:57:02.463Z,7100
2018-07-06T12:58:02.445Z,4992
2018-07-06T12:59:02.465Z,5440
2018-07-06T13:00:02.479Z,3436
2018-07-06T13:01:02.789Z,3820
2018-07-06T13:02:02.548Z,2804
2018-07-06T13:03:02.311Z,1700
2018-07-06T13:04:02.337Z,1600
2018-07-06T13:05:02.696Z,2096
2018-07-06T13:06:02.428Z,3140
2018-07-06T13:07:02.709Z,3648
2018-07-06T13:08:02.455Z,3340
2018-07-06T13:09:02.221Z,3144
2018-07-06T13:10:02.803Z,3112
2018-07-06T13:11:03.094Z,4212
2018-07-06T13:12:03.129Z,5928
2018-07-06T13:13:03.147Z,5996
2018-07-06T13:14:03.175Z,5420
2018-07-06T13:15:03.206Z,5500
2018-07-06T13:16:02.961Z,5716
2018-07-06T13:17:02.988Z,6316
2018-07-06T13:18:03.301Z,4564
2018-07-06T13:19:03.320Z,4804
2018-07-06T13:20:02.851Z,3784
2018-07-06T13:21:03.780Z,4748
2018-07-06T13:22:03.421Z,7376
2018-07-06T13:23:03.467Z,4456
2018-07-06T13:24:03.217Z,5712
2018-07-06T13:25:03.238Z,7020
2018-07-06T13:26:03.637Z,7472
2018-07-06T13:27:03.585Z,5052
2018-07-06T13:28:03.605Z,7124
2018-07-06T13:29:03.779Z,5224
2018-07-06T13:30:03.150Z,1824
2018-07-06T13:31:03.435Z,1344
2018-07-06T13:32:03.457Z,1308
2018-07-06T13:33:03.788Z,2344
2018-07-06T13:34:03.628Z,6632
2018-07-06T13:35:03.281Z,4380
2018-07-06T13:36:03.855Z,2876
2018-07-06T13:37:03.607Z,1924
2018-07-06T13:38:03.653Z,1852
2018-07-06T13:39:03.722Z,2564
2018-07-06T13:40:03.440Z,3312
2018-07-06T13:41:03.993Z,3168
2018-07-06T13:42:04.034Z,2392
2018-07-06T13:43:03.790Z,2212
2018-07-06T13:44:03.826Z,2388